createdAt,value
2023-09-11T05:28:23.477Z,19.40
2023-09-11T05:31:25.245Z,19.40
2023-09-11T05:34:26.959Z,19.40
2023-09-11T05:37:28.862Z,19.40
2023-09-11T05:40:30.705Z,19.40
2023-09-11T05:43:32.435Z,19.40
2023-09-11T05:46:36.917Z,19.40
2023-09-11T05:49:39.676Z,19.40
2023-09-11T05:52:41.386Z,19.30
2023-09-11T05:55:43.195Z,19.20
2023-09-11T05:58:44.929Z,19.20
2023-09-11T06:01:50.145Z,19.20
2023-09-11T06:04:51.838Z,19.30
2023-09-11T06:07:53.582Z,19.30
2023-09-11T06:10:55.346Z,19.30
2023-09-11T06:13:57.124Z,19.30
2023-09-11T06:16:58.887Z,19.40
2023-09-11T06:20:00.993Z,19.40
2023-09-11T06:23:03.420Z,19.40
2023-09-11T06:26:05.302Z,19.40
2023-09-11T06:29:07.150Z,19.40
2023-09-11T06:32:08.940Z,19.50
2023-09-11T06:35:11.233Z,19.50
2023-09-11T06:38:13.216Z,19.50
2023-09-11T06:41:30.069Z,19.50
2023-09-11T06:44:32.200Z,19.50
2023-09-11T06:47:34.458Z,19.50
2023-09-11T06:50:36.328Z,19.60
2023-09-11T06:53:38.138Z,19.70
2023-09-11T06:56:42.746Z,19.70
2023-09-11T06:59:44.694Z,19.90
2023-09-11T07:02:50.121Z,20.00
2023-09-11T07:05:52.773Z,20.20
2023-09-11T07:08:54.879Z,20.30
2023-09-11T07:11:57.666Z,20.50
2023-09-11T07:15:00.032Z,20.50
2023-09-11T07:18:02.063Z,20.60
2023-09-11T07:21:05.397Z,20.70
2023-09-11T07:24:07.474Z,20.70
2023-09-11T07:27:09.230Z,20.80
2023-09-11T07:30:11.496Z,20.80
2023-09-11T07:33:13.324Z,20.90
2023-09-11T07:36:15.305Z,21.00
2023-09-11T07:39:17.294Z,21.10
2023-09-11T07:42:19.115Z,21.20
2023-09-11T07:45:21.656Z,21.20
2023-09-11T07:48:23.479Z,21.20
2023-09-11T07:51:26.001Z,21.10
2023-09-11T07:54:27.951Z,21.00
2023-09-11T07:57:31.512Z,21.00
2023-09-11T08:00:33.328Z,21.10
2023-09-11T08:03:35.786Z,21.10
2023-09-11T08:06:49.827Z,21.30
2023-09-11T08:09:53.885Z,21.30
2023-09-11T08:12:55.704Z,21.30
2023-09-11T08:15:57.364Z,21.30
2023-09-11T08:18:59.410Z,21.30
2023-09-11T08:22:01.135Z,21.30
2023-09-11T08:25:03.459Z,21.40
2023-09-11T08:28:05.724Z,21.40
2023-09-11T08:31:07.550Z,21.40
2023-09-11T08:34:09.650Z,21.40
2023-09-11T08:37:11.471Z,21.50
2023-09-11T08:40:13.278Z,21.50
2023-09-11T08:43:15.002Z,21.70
2023-09-11T08:46:17.322Z,21.70
2023-09-11T08:49:20.285Z,21.80
2023-09-11T08:52:23.294Z,21.80
2023-09-11T08:55:25.712Z,21.90
2023-09-11T08:58:27.479Z,21.90
2023-09-11T09:01:29.429Z,21.90
2023-09-11T09:04:31.461Z,21.80
2023-09-11T09:07:33.641Z,21.80
2023-09-11T09:10:35.322Z,22.00
2023-09-11T09:13:37.250Z,22.40
2023-09-11T09:16:38.946Z,22.60
2023-09-11T09:19:40.880Z,22.70
2023-09-11T09:22:56.068Z,22.70
2023-09-11T09:26:04.886Z,22.60
2023-09-11T09:29:09.180Z,22.70
2023-09-11T09:32:11.108Z,22.70
2023-09-11T09:35:12.922Z,22.60
2023-09-11T09:38:14.740Z,22.50
2023-09-11T09:41:21.636Z,22.30
2023-09-11T09:44:33.342Z,22.20
2023-09-11T09:47:35.198Z,22.20
2023-09-11T09:51:00.012Z,22.30
2023-09-11T09:54:01.987Z,22.50
2023-09-11T09:57:03.911Z,22.50
2023-09-11T10:00:06.667Z,22.60
2023-09-11T10:03:09.428Z,22.50
2023-09-11T10:06:33.406Z,22.30
2023-09-11T10:09:36.174Z,22.30
2023-09-11T10:12:37.899Z,22.30
2023-09-11T10:15:40.581Z,22.50
2023-09-11T10:18:46.665Z,22.40
2023-09-11T10:21:48.635Z,22.30
2023-09-11T10:24:50.329Z,22.50
2023-09-11T10:28:01.962Z,22.70
2023-09-11T10:31:08.437Z,22.80
2023-09-11T10:34:11.066Z,22.90
2023-09-11T10:37:12.804Z,22.80
2023-09-11T10:40:14.905Z,22.80
2023-09-11T10:43:16.604Z,22.90
2023-09-11T10:46:31.605Z,23.00
2023-09-11T10:49:38.064Z,23.00
2023-09-11T10:52:39.775Z,23.20
2023-09-11T10:55:41.501Z,23.40
2023-09-11T10:58:43.390Z,23.60
2023-09-11T11:01:48.981Z,23.70
2023-09-11T11:04:50.723Z,23.80
2023-09-11T11:07:52.720Z,24.00
2023-09-11T11:10:57.469Z,24.00
2023-09-11T11:14:16.143Z,24.00
2023-09-11T11:17:18.008Z,24.20
2023-09-11T11:20:19.841Z,24.40
2023-09-11T11:23:21.535Z,24.50
2023-09-11T11:26:26.815Z,24.60
2023-09-11T11:29:28.636Z,24.70
2023-09-11T11:32:30.926Z,24.70
2023-09-11T11:35:32.636Z,24.70
2023-09-11T11:38:34.849Z,24.70
2023-09-11T11:41:40.947Z,25.00
2023-09-11T11:44:42.867Z,25.20
2023-09-11T11:47:45.027Z,25.40
2023-09-11T11:50:47.356Z,25.70
2023-09-11T11:53:49.098Z,25.80
2023-09-11T11:56:57.335Z,25.60
2023-09-11T12:00:00.494Z,25.40
2023-09-11T12:03:06.566Z,25.10
2023-09-11T12:06:08.473Z,25.10
2023-09-11T12:09:10.989Z,25.30
2023-09-11T12:12:12.758Z,25.40
2023-09-11T12:15:14.614Z,25.20
2023-09-11T12:18:16.463Z,25.00
2023-09-11T12:21:18.290Z,25.00
2023-09-11T12:24:20.009Z,25.20
2023-09-11T12:27:21.723Z,25.50
2023-09-11T12:30:23.484Z,25.60
2023-09-11T12:33:26.851Z,25.80
2023-09-11T12:36:29.016Z,26.00
2023-09-11T12:39:31.027Z,26.10
2023-09-11T12:42:32.706Z,26.00
2023-09-11T12:45:34.563Z,25.80
2023-09-11T12:48:41.415Z,25.80
2023-09-11T12:51:43.708Z,25.60
2023-09-11T12:54:45.436Z,25.60
2023-09-11T12:57:47.407Z,25.60
2023-09-11T13:00:49.431Z,25.60
2023-09-11T13:03:51.373Z,25.60
2023-09-11T13:06:53.202Z,25.50
2023-09-11T13:09:55.289Z,25.40
2023-09-11T13:12:57.060Z,25.40
2023-09-11T13:16:01.846Z,25.40
2023-09-11T13:20:03.937Z,25.40
2023-09-11T13:23:05.646Z,25.60
2023-09-11T13:26:08.330Z,26.10
2023-09-11T13:29:11.171Z,26.40
2023-09-11T13:32:12.896Z,26.40
2023-09-11T13:35:14.556Z,26.20
2023-09-11T13:38:16.489Z,26.00
2023-09-11T13:41:18.173Z,26.00
2023-09-11T13:44:19.888Z,26.10
2023-09-11T13:47:21.607Z,26.20
2023-09-11T13:50:23.345Z,26.10
2023-09-11T13:53:25.029Z,26.00
2023-09-11T13:56:26.711Z,25.80
2023-09-11T13:59:28.629Z,25.80
2023-09-11T14:02:30.356Z,25.80
2023-09-11T14:05:44.479Z,26.00
2023-09-11T14:08:47.442Z,26.20
2023-09-11T14:11:49.156Z,26.50
2023-09-11T14:14:50.992Z,26.80
2023-09-11T14:17:54.106Z,26.80
2023-09-11T14:20:55.801Z,26.70
2023-09-11T14:23:57.783Z,26.70
2023-09-11T14:26:59.593Z,26.70
2023-09-11T14:30:01.435Z,26.80
2023-09-11T14:33:03.422Z,26.80
2023-09-11T14:36:05.382Z,26.80
2023-09-11T14:39:07.437Z,26.80
2023-09-11T14:42:10.091Z,26.60
2023-09-11T14:45:11.833Z,26.40
2023-09-11T14:48:13.864Z,26.30
2023-09-11T14:51:15.726Z,26.30
2023-09-11T14:54:17.433Z,26.40
2023-09-11T14:57:19.662Z,26.40
2023-09-11T15:00:22.553Z,26.30
2023-09-11T15:03:24.591Z,26.30
2023-09-11T15:06:28.187Z,26.20
2023-09-11T15:09:30.256Z,26.20
2023-09-11T15:12:32.040Z,26.10
2023-09-11T15:15:33.786Z,26.00
2023-09-11T15:18:35.671Z,25.80
2023-09-11T15:21:37.455Z,25.60
2023-09-11T15:24:39.197Z,25.50
2023-09-11T15:27:40.976Z,25.50
2023-09-11T15:30:42.812Z,25.50
2023-09-11T15:33:44.578Z,25.50
2023-09-11T15:36:46.312Z,25.60
2023-09-11T15:39:48.302Z,25.60
2023-09-11T15:42:50.050Z,25.70
2023-09-11T15:45:51.756Z,26.00
2023-09-11T15:48:53.623Z,26.20
2023-09-11T15:51:55.333Z,26.50
2023-09-11T15:54:57.096Z,26.70
2023-09-11T15:57:59.461Z,27.00
2023-09-11T16:01:02.410Z,27.10
2023-09-11T16:04:04.169Z,27.00
2023-09-11T16:07:06.333Z,26.60
2023-09-11T16:10:08.861Z,26.30
2023-09-11T16:13:10.617Z,26.10
2023-09-11T16:16:12.518Z,26.40
2023-09-11T16:19:14.657Z,26.70
2023-09-11T16:22:16.651Z,26.90
2023-09-11T16:25:18.335Z,27.30
2023-09-11T16:28:26.064Z,27.30
2023-09-11T16:31:27.895Z,27.30
2023-09-11T16:34:29.609Z,27.30
2023-09-11T16:37:31.321Z,27.30
2023-09-11T16:40:35.200Z,27.20
2023-09-11T16:43:36.939Z,27.20
2023-09-11T16:46:38.684Z,26.90
2023-09-11T16:49:40.707Z,26.50
2023-09-11T16:52:42.433Z,26.20
2023-09-11T16:55:44.741Z,25.80
2023-09-11T16:58:46.553Z,25.40
2023-09-11T17:01:48.355Z,25.10
2023-09-11T17:04:50.055Z,25.00
2023-09-11T17:07:51.855Z,24.80
2023-09-11T17:10:54.270Z,24.60
2023-09-11T17:13:56.302Z,24.40
2023-09-11T17:16:57.978Z,24.30
2023-09-11T17:20:00.189Z,24.20
2023-09-11T17:23:01.916Z,24.10
2023-09-11T17:26:03.615Z,24.00
2023-09-11T17:29:05.389Z,23.90
2023-09-11T17:32:10.673Z,23.90
2023-09-11T17:35:12.788Z,23.80
2023-09-11T17:38:16.125Z,23.80
2023-09-11T17:41:17.843Z,23.60
2023-09-11T17:44:19.545Z,23.60
2023-09-11T17:47:21.522Z,23.60
2023-09-11T17:50:23.546Z,23.50
2023-09-11T17:53:25.356Z,23.50
2023-09-11T17:56:27.383Z,23.50
2023-09-11T17:59:29.077Z,23.50
2023-09-11T18:02:30.792Z,23.50
2023-09-11T18:05:33.230Z,23.40
2023-09-11T18:08:34.980Z,23.30
2023-09-11T18:11:36.671Z,23.20
2023-09-11T18:14:38.366Z,23.10
2023-09-11T18:17:41.894Z,23.00
2023-09-11T18:20:45.558Z,22.80
2023-09-11T18:23:47.454Z,22.70
2023-09-11T18:26:49.246Z,22.60
2023-09-11T18:29:50.942Z,22.50
2023-09-11T18:32:53.191Z,22.40
2023-09-11T18:36:02.796Z,22.20
2023-09-11T18:39:05.492Z,22.10
2023-09-11T18:42:08.500Z,22.00
2023-09-11T18:45:11.526Z,21.90
2023-09-11T18:48:13.579Z,21.90
2023-09-11T18:51:15.409Z,21.70
2023-09-11T18:54:19.284Z,21.70
2023-09-11T18:57:21.056Z,21.60
2023-09-11T19:00:23.549Z,21.50
2023-09-11T19:03:25.417Z,21.50
2023-09-11T19:06:27.478Z,21.50
2023-09-11T19:09:30.548Z,21.40
2023-09-11T19:12:32.408Z,21.40
2023-09-11T19:15:34.183Z,21.30
2023-09-11T19:18:38.285Z,21.30
2023-09-11T19:21:40.231Z,21.20
2023-09-11T19:24:42.795Z,21.10
2023-09-11T19:27:44.713Z,21.10
2023-09-11T19:30:46.420Z,21.00
2023-09-11T19:33:48.764Z,21.00
2023-09-11T19:36:50.788Z,21.00
2023-09-11T19:39:52.742Z,21.00
2023-09-11T19:42:54.446Z,20.90
2023-09-11T19:45:56.357Z,20.80
2023-09-11T19:48:58.348Z,20.80
2023-09-11T19:52:00.810Z,20.70
2023-09-11T19:55:02.553Z,20.70
2023-09-11T19:58:04.528Z,20.60
2023-09-11T20:01:06.518Z,20.60
2023-09-11T20:04:08.460Z,20.50
2023-09-11T20:07:10.350Z,20.50
2023-09-11T20:10:12.308Z,20.50
2023-09-11T20:13:14.702Z,20.50
2023-09-11T20:16:16.433Z,20.50
2023-09-11T20:19:19.136Z,20.40
2023-09-11T20:22:20.809Z,20.40
2023-09-11T20:25:22.500Z,20.40
2023-09-11T20:28:24.263Z,20.40
2023-09-11T20:31:26.069Z,20.30
2023-09-11T20:34:27.748Z,20.30
2023-09-11T20:37:31.100Z,20.30
2023-09-11T20:40:33.117Z,20.30
2023-09-11T20:43:35.310Z,20.30
2023-09-11T20:46:37.003Z,20.40
2023-09-11T20:49:38.825Z,20.30
2023-09-11T20:52:40.569Z,20.30
2023-09-11T20:55:42.314Z,20.30
2023-09-11T20:58:45.419Z,20.20
2023-09-11T21:01:47.182Z,20.20
2023-09-11T21:04:51.034Z,20.10
2023-09-11T21:07:52.959Z,20.10
2023-09-11T21:10:54.827Z,20.00
2023-09-11T21:13:56.525Z,20.00
2023-09-11T21:16:58.227Z,19.90
2023-09-11T21:20:00.159Z,19.80
2023-09-11T21:23:03.876Z,19.70
2023-09-11T21:26:06.566Z,19.70
2023-09-11T21:29:08.294Z,19.70
2023-09-11T21:32:09.974Z,19.70
2023-09-11T21:35:11.687Z,19.60
2023-09-11T21:38:13.469Z,19.60
2023-09-11T21:41:16.223Z,19.60
2023-09-11T21:44:17.926Z,19.60
2023-09-11T21:47:19.615Z,19.60
2023-09-11T21:50:21.716Z,19.50
2023-09-11T21:53:23.439Z,19.50
2023-09-11T21:56:25.113Z,19.50
2023-09-11T21:59:27.140Z,19.50
2023-09-11T22:02:28.902Z,19.50
2023-09-11T22:05:32.081Z,19.50
2023-09-11T22:08:33.948Z,19.50
2023-09-11T22:11:35.725Z,19.50
2023-09-11T22:14:37.411Z,19.50
2023-09-11T22:17:39.218Z,19.50
2023-09-11T22:20:41.242Z,19.50
2023-09-11T22:23:43.166Z,19.50
2023-09-11T22:26:45.001Z,19.50
2023-09-11T22:29:46.701Z,19.40
2023-09-11T22:32:55.867Z,19.40
2023-09-11T22:35:57.862Z,19.30
2023-09-11T22:38:59.807Z,19.30
2023-09-11T22:42:01.554Z,19.20
2023-09-11T22:45:03.413Z,19.20
2023-09-11T22:48:05.509Z,19.10
2023-09-11T22:51:07.523Z,19.10
2023-09-11T22:54:09.225Z,19.10
2023-09-11T22:57:11.058Z,19.00
2023-09-11T23:00:13.432Z,19.00
2023-09-11T23:03:15.348Z,19.00
